Time;durP1;ratioP1;P1;durP2;ratioP2;P2;SDS_P1;SDS_P2;PMS_P1;PMS_P2;Temp;Humidity;BMP_temperature;BMP_pressure;BME280_temperature;BME280_humidity;BME280_pressure;Samples;Min_cycle;Max_cycle;Signal;HPM_P1;HPM_P2
2022/07/16 00:02:37;;;;;;;3.17;1.23;;;;;;;27.99;33.12;102197.97;5086603;28;20043;-75
2022/07/16 00:05:04;;;;;;;5.57;1.77;;;;;;;28.17;33.22;102196.84;5089542;28;20495;-75
2022/07/16 00:07:29;;;;;;;3.58;1.23;;;;;;;28.42;32.65;102195.25;5087727;28;20287;-75
2022/07/16 00:09:55;;;;;;;2.33;1.10;;;;;;;28.46;32.83;102188.72;5087420;28;20028;-75
2022/07/16 00:12:20;;;;;;;2.80;1.27;;;;;;;28.53;32.62;102192.72;5089636;28;20486;-75
2022/07/16 00:14:45;;;;;;;1.45;1.20;;;;;;;29.02;32.09;102204.81;5091207;28;20020;-75
2022/07/16 00:17:11;;;;;;;2.40;1.40;;;;;;;27.62;34.67;102194.88;5070662;28;20032;-75
2022/07/16 00:19:36;;;;;;;1.83;1.52;;;;;;;27.53;34.88;102196.28;5070491;28;20028;-74
2022/07/16 00:22:01;;;;;;;6.20;1.48;;;;;;;28.81;33.17;102201.72;5069906;28;20078;-74
2022/07/16 00:24:27;;;;;;;3.38;1.60;;;;;;;27.14;36.37;102198.56;5068853;28;20032;-75
2022/07/16 00:26:53;;;;;;;4.47;1.98;;;;;;;27.02;37.20;102204.63;5069552;28;20066;-74
2022/07/16 00:29:19;;;;;;;5.88;2.17;;;;;;;26.81;37.75;102202.25;5076992;28;20032;-75
2022/07/16 00:31:47;;;;;;;3.22;1.63;;;;;;;27.79;36.38;102200.06;5072070;28;20550;-75
2022/07/16 00:34:13;;;;;;;2.08;1.67;;;;;;;27.74;36.17;102194.13;5070224;28;20039;-75
2022/07/16 00:36:39;;;;;;;7.85;1.83;;;;;;;27.91;35.96;102196.59;5069329;28;20028;-76
2022/07/16 00:39:06;;;;;;;2.88;1.75;;;;;;;28.06;36.22;102193.97;5075360;28;20053;-75
2022/07/16 00:41:33;;;;;;;3.85;1.58;;;;;;;27.90;36.44;102194.91;5091090;28;20024;-75
2022/07/16 00:44:15;;;;;;;3.60;1.80;;;;;;;28.45;35.88;102200.44;5087950;28;20047;-75
2022/07/16 00:46:41;;;;;;;5.55;1.70;;;;;;;27.46;37.38;102193.09;5072724;28;20064;-75
2022/07/16 00:49:08;;;;;;;5.22;2.03;;;;;;;26.94;39.04;102197.03;5068717;28;20024;-75
2022/07/16 00:51:34;;;;;;;3.80;1.80;;;;;;;28.57;35.96;102186.19;5068880;28;20066;-75
2022/07/16 00:54:00;;;;;;;2.88;1.58;;;;;;;27.82;37.53;102189.16;5069185;28;20443;-75
2022/07/16 00:56:26;;;;;;;4.75;1.90;;;;;;;27.79;37.61;102189.31;5068874;28;20028;-75
2022/07/16 00:58:54;;;;;;;1.98;1.75;;;;;;;27.53;37.89;102185.53;5070828;28;20042;-75
2022/07/16 01:01:21;;;;;;;5.45;2.03;;;;;;;27.37;38.53;102185.63;5073265;28;20078;-75
2022/07/16 01:03:47;;;;;;;3.55;1.70;;;;;;;27.85;37.36;102194.31;5070704;28;20047;-75
2022/07/16 01:06:14;;;;;;;2.15;1.70;;;;;;;28.20;36.35;102190.41;5069011;28;20543;-74
2022/07/16 01:08:47;;;;;;;2.13;1.83;;;;;;;27.41;38.38;102192.53;5083656;28;20074;-74
2022/07/16 01:11:15;;;;;;;4.18;1.58;;;;;;;27.29;38.48;102191.41;5069747;28;20452;-74
2022/07/16 01:13:44;;;;;;;3.65;1.80;;;;;;;27.23;38.93;102192.66;5068269;28;20025;-75
2022/07/16 01:16:10;;;;;;;5.95;1.60;;;;;;;27.06;38.82;102198.13;5068937;28;20075;-75
2022/07/16 01:18:37;;;;;;;3.58;1.80;;;;;;;27.17;39.05;102193.00;5072268;28;20038;-75
2022/07/16 01:21:03;;;;;;;2.60;1.77;;;;;;;27.37;38.57;102186.47;5076719;28;20119;-74
2022/07/16 01:23:29;;;;;;;3.72;1.90;;;;;;;26.84;39.39;102190.47;5082489;28;20059;-75
2022/07/16 01:25:54;;;;;;;6.43;1.77;;;;;;;26.61;40.19;102192.63;5092522;28;20119;-75
2022/07/16 01:28:20;;;;;;;5.18;1.50;;;;;;;28.01;37.64;102182.63;5084609;28;20578;-75
2022/07/16 01:30:46;;;;;;;5.63;2.03;;;;;;;27.33;39.27;102184.91;5074817;28;20031;-75
2022/07/16 01:33:22;;;;;;;6.00;1.92;;;;;;;28.26;37.15;102193.56;5089826;28;20027;-74
2022/07/16 01:35:49;;;;;;;5.13;1.80;;;;;;;27.88;37.74;102188.75;5092606;28;20360;-75
2022/07/16 01:38:15;;;;;;;5.47;2.00;;;;;;;28.46;36.63;102188.72;5091571;28;20081;-74
2022/07/16 01:40:40;;;;;;;4.93;1.83;;;;;;;27.54;38.51;102187.28;5091373;28;20024;-75
2022/07/16 01:43:18;;;;;;;8.88;1.80;;;;;;;28.31;36.83;102192.41;5077402;28;20053;-75
2022/07/16 01:45:44;;;;;;;2.70;1.63;;;;;;;28.83;36.07;102189.03;5073547;28;20032;-75
2022/07/16 01:48:12;;;;;;;3.65;2.03;;;;;;;26.60;40.45;102196.28;5072516;28;20613;-75
2022/07/16 01:50:38;;;;;;;4.15;2.08;;;;;;;26.41;40.98;102196.44;5071841;28;20400;-75
2022/07/16 01:53:04;;;;;;;5.47;1.90;;;;;;;28.25;37.57;102193.66;5071763;28;20024;-74
2022/07/16 01:55:29;;;;;;;4.28;1.67;;;;;;;27.87;38.11;102188.84;5082102;28;20059;-75
2022/07/16 01:57:55;;;;;;;5.97;2.10;;;;;;;27.73;38.51;102195.09;5072784;28;20077;-74
2022/07/16 02:00:20;;;;;;;5.15;1.95;;;;;;;27.95;38.34;102193.75;5084079;28;20028;-74
2022/07/16 02:02:45;;;;;;;4.22;1.92;;;;;;;28.54;37.37;102199.00;5072571;28;20162;-75
2022/07/16 02:05:12;;;;;;;7.80;2.28;;;;;;;28.57;36.95;102199.63;5071624;28;20028;-74
2022/07/16 02:07:38;;;;;;;5.00;1.90;;;;;;;28.44;37.00;102201.41;5084813;28;20468;-75
2022/07/16 02:10:04;;;;;;;5.20;2.10;;;;;;;28.39;37.48;102203.53;5082342;28;20031;-75
2022/07/16 02:12:29;;;;;;;4.63;2.38;;;;;;;28.92;36.30;102199.19;5073222;28;20028;-74
2022/07/16 02:14:55;;;;;;;5.13;2.08;;;;;;;28.16;38.09;102205.84;5076634;28;20044;-75
2022/07/16 02:17:20;;;;;;;4.40;2.67;;;;;;;28.74;36.50;102208.44;5091261;28;20027;-75
2022/07/16 02:19:46;;;;;;;5.43;2.47;;;;;;;28.88;36.39;102211.09;5087271;28;20028;-75
2022/07/16 02:22:11;;;;;;;11.48;2.47;;;;;;;28.54;36.99;102207.06;5092777;28;20300;-74
2022/07/16 02:24:37;;;;;;;5.35;2.40;;;;;;;27.99;38.13;102208.72;5083661;28;20028;-75
2022/07/16 02:27:03;;;;;;;3.22;1.90;;;;;;;27.77;38.40;102210.06;5072512;28;20032;-75
2022/07/16 02:29:28;;;;;;;5.20;2.33;;;;;;;28.77;36.69;102206.44;5090204;28;20557;-75
2022/07/16 02:31:53;;;;;;;6.63;2.28;;;;;;;28.33;37.58;102209.28;5074334;28;20119;-75
2022/07/16 02:34:19;;;;;;;3.22;2.28;;;;;;;28.57;36.94;102210.38;5071475;28;20032;-74
2022/07/16 02:36:44;;;;;;;7.75;2.30;;;;;;;28.25;37.68;102212.47;5071951;28;20048;-76
2022/07/16 02:39:10;;;;;;;5.70;2.47;;;;;;;27.56;38.65;102212.19;5089105;28;20069;-75
2022/07/16 02:41:35;;;;;;;6.45;2.78;;;;;;;27.79;38.33;102216.16;5091535;28;20138;-75
2022/07/16 02:44:00;;;;;;;6.38;2.00;;;;;;;27.09;40.02;102222.09;5082684;28;20048;-75
2022/07/16 02:46:26;;;;;;;5.30;2.38;;;;;;;27.71;38.90;102223.84;5054634;28;20035;-75
2022/07/16 02:48:51;;;;;;;5.63;2.70;;;;;;;27.80;38.65;102225.13;5054158;28;20016;-75
2022/07/16 02:51:17;;;;;;;7.18;1.67;;;;;;;27.45;39.66;102230.78;5052614;28;20519;-75
2022/07/16 02:53:42;;;;;;;4.03;1.60;;;;;;;27.43;39.32;102228.19;5066440;28;20021;-74
2022/07/16 02:56:08;;;;;;;3.78;1.30;;;;;;;27.37;39.30;102240.16;5070664;28;20549;-73
2022/07/16 02:58:33;;;;;;;6.82;2.15;;;;;;;27.34;39.69;102240.31;5071472;28;20031;-75
2022/07/16 03:00:58;;;;;;;6.72;1.73;;;;;;;27.28;39.87;102239.81;5071815;28;20559;-74
2022/07/16 03:03:24;;;;;;;3.03;1.27;;;;;;;27.57;38.85;102248.84;5069100;28;20032;-75
2022/07/16 03:05:49;;;;;;;2.83;1.33;;;;;;;27.70;38.83;102249.00;5053439;28;20086;-75
2022/07/16 03:08:15;;;;;;;7.10;1.58;;;;;;;27.82;38.36;102256.31;5052311;28;20082;-75
2022/07/16 03:10:40;;;;;;;2.15;1.40;;;;;;;28.22;37.94;102252.97;5052790;28;20551;-75
2022/07/16 03:13:05;;;;;;;5.65;1.13;;;;;;;27.70;38.85;102257.03;5048580;28;20040;-76
2022/07/16 03:15:31;;;;;;;2.15;1.30;;;;;;;27.57;39.03;102263.16;5070117;28;20563;-75
2022/07/16 03:17:56;;;;;;;2.75;1.40;;;;;;;27.85;38.57;102255.22;5071654;28;20077;-75
2022/07/16 03:20:23;;;;;;;3.80;1.40;;;;;;;27.77;38.75;102255.72;5071011;28;20030;-75
2022/07/16 03:22:49;;;;;;;3.45;1.90;;;;;;;27.12;39.92;102262.19;5039919;28;20476;-75
2022/07/16 03:25:15;;;;;;;3.45;1.60;;;;;;;27.64;39.01;102254.72;5050026;28;20044;-75
2022/07/16 03:27:40;;;;;;;1.75;1.08;;;;;;;27.90;38.44;102259.38;5033350;28;20025;-75
2022/07/16 03:30:06;;;;;;;3.65;1.70;;;;;;;27.82;38.54;102268.84;5033557;28;20043;-75
2022/07/16 03:32:32;;;;;;;4.38;1.30;;;;;;;27.54;38.90;102268.69;5051703;28;20025;-76
2022/07/16 03:34:57;;;;;;;3.53;1.30;;;;;;;27.58;39.13;102262.19;5049841;28;20103;-75
2022/07/16 03:37:22;;;;;;;2.97;1.27;;;;;;;27.38;39.20;102263.38;5052698;28;20035;-75
2022/07/16 03:39:48;;;;;;;1.75;1.38;;;;;;;27.65;39.07;102259.13;5058474;28;20082;-76
2022/07/16 03:42:13;;;;;;;1.45;1.10;;;;;;;27.65;38.99;102277.94;5065318;28;20429;-76
2022/07/16 03:44:38;;;;;;;6.43;1.30;;;;;;;27.62;38.82;102275.44;5071263;28;20080;-75
2022/07/16 03:47:04;;;;;;;1.80;1.02;;;;;;;27.75;38.63;102287.16;5069433;28;20024;-75
2022/07/16 03:49:29;;;;;;;4.95;1.60;;;;;;;27.66;38.96;102299.31;5069567;28;20035;-76
2022/07/16 03:51:55;;;;;;;4.28;1.88;;;;;;;27.51;39.36;102284.97;5050082;28;20511;-76
2022/07/16 03:54:20;;;;;;;4.25;1.75;;;;;;;27.51;39.48;102290.34;5050453;28;20029;-76
2022/07/16 03:56:46;;;;;;;4.78;1.20;;;;;;;27.26;39.58;102286.41;5033688;28;20386;-76
2022/07/16 03:59:11;;;;;;;7.75;1.58;;;;;;;27.46;39.65;102296.97;5032315;28;20376;-75
2022/07/16 04:01:37;;;;;;;2.88;1.63;;;;;;;27.46;39.43;102297.81;5032878;28;20028;-75
2022/07/16 04:04:02;;;;;;;3.33;1.27;;;;;;;27.04;41.18;102296.66;5068008;28;20031;-76
2022/07/16 04:06:28;;;;;;;3.17;1.35;;;;;;;27.04;41.06;102291.28;5050215;28;20028;-76
2022/07/16 04:08:53;;;;;;;5.70;1.33;;;;;;;27.68;40.07;102301.91;5052246;28;20013;-75
2022/07/16 04:11:19;;;;;;;3.40;1.63;;;;;;;26.68;42.24;102306.63;5053330;28;20024;-76
2022/07/16 04:13:44;;;;;;;5.28;1.50;;;;;;;27.36;40.88;102304.69;5053470;28;20027;-76
2022/07/16 04:16:11;;;;;;;5.32;1.70;;;;;;;27.97;39.57;102307.34;5050039;28;20108;-76
2022/07/16 04:18:37;;;;;;;4.50;1.65;;;;;;;27.69;40.48;102309.03;5067089;28;20666;-75
2022/07/16 04:21:03;;;;;;;8.00;2.08;;;;;;;28.10;39.18;102316.44;5057550;28;20033;-76
2022/07/16 04:23:28;;;;;;;3.25;1.65;;;;;;;27.88;39.54;102317.69;5032645;28;20036;-76
2022/07/16 04:25:54;;;;;;;5.93;1.55;;;;;;;28.16;39.19;102313.34;5050916;28;20146;-76
2022/07/16 04:28:20;;;;;;;5.38;2.10;;;;;;;27.95;39.60;102325.41;5048913;28;20020;-76
2022/07/16 04:30:45;;;;;;;7.75;2.00;;;;;;;28.30;39.16;102325.06;5052291;28;20495;-76
2022/07/16 04:33:11;;;;;;;3.17;1.48;;;;;;;28.41;38.87;102327.94;5043289;28;20036;-76
2022/07/16 04:35:37;;;;;;;9.63;1.60;;;;;;;27.86;39.67;102334.84;5032966;28;20060;-75
2022/07/16 04:38:02;;;;;;;5.80;1.85;;;;;;;27.86;39.65;102337.53;5032007;28;20059;-75
2022/07/16 04:40:28;;;;;;;4.80;1.60;;;;;;;27.75;40.02;102335.50;5053222;28;20536;-76
2022/07/16 04:42:53;;;;;;;6.25;1.70;;;;;;;27.30;40.44;102334.50;5052607;28;20027;-75
2022/07/16 04:45:18;;;;;;;3.25;1.30;;;;;;;27.25;40.41;102338.34;5084191;28;20048;-75
2022/07/16 04:47:44;;;;;;;3.03;1.50;;;;;;;26.61;41.72;102341.91;5080216;28;20141;-76
2022/07/16 04:50:10;;;;;;;3.53;1.45;;;;;;;27.31;40.77;102347.00;5070784;28;20024;-76
2022/07/16 04:52:35;;;;;;;2.55;1.35;;;;;;;27.71;39.94;102350.06;5089519;28;20437;-76
2022/07/16 04:55:01;;;;;;;3.72;1.35;;;;;;;26.90;40.94;102349.25;5094683;28;20042;-76
2022/07/16 04:57:27;;;;;;;6.68;1.95;;;;;;;27.45;40.43;102349.78;5080806;28;20029;-76
2022/07/16 04:59:53;;;;;;;6.38;1.25;;;;;;;27.48;40.04;102346.03;5093447;28;20019;-76
2022/07/16 05:05:03;;;;;;;7.97;1.38;;;;;;;27.65;39.08;102347.75;5073967;28;20554;-76
2022/07/16 05:07:29;;;;;;;3.22;1.20;;;;;;;28.13;38.41;102359.22;5088102;28;20480;-76
2022/07/16 05:09:54;;;;;;;6.50;1.10;;;;;;;27.67;39.61;102353.88;5091660;28;20030;-76
2022/07/16 05:12:20;;;;;;;5.13;1.38;;;;;;;27.50;39.53;102353.06;5084510;28;20035;-76
2022/07/16 05:14:45;;;;;;;4.07;1.17;;;;;;;26.72;40.82;102350.25;5073606;28;20050;-76
2022/07/16 05:17:10;;;;;;;3.88;1.25;;;;;;;26.83;41.05;102355.03;5080381;28;20031;-76
2022/07/16 05:19:36;;;;;;;2.78;1.00;;;;;;;27.26;39.98;102356.19;5074753;28;20488;-76
2022/07/16 05:22:01;;;;;;;2.42;0.85;;;;;;;27.34;39.36;102362.91;5088387;28;20106;-76
2022/07/16 05:24:27;;;;;;;2.30;1.20;;;;;;;26.39;41.84;102376.09;5081648;28;20541;-76
2022/07/16 05:26:52;;;;;;;8.10;1.70;;;;;;;26.18;42.14;102372.72;5091429;28;20468;-76
2022/07/16 05:29:18;;;;;;;4.38;1.10;;;;;;;26.31;41.47;102362.25;5088544;28;20086;-75
2022/07/16 05:31:43;;;;;;;4.10;1.15;;;;;;;26.23;41.25;102368.00;5082892;28;20028;-75
2022/07/16 05:34:09;;;;;;;7.95;1.25;;;;;;;27.37;39.21;102370.84;5077369;28;20020;-76
2022/07/16 05:36:35;;;;;;;3.42;1.02;;;;;;;26.84;39.76;102371.03;5072303;28;20496;-76
2022/07/16 05:39:00;;;;;;;2.35;1.20;;;;;;;26.23;41.44;102370.66;5077344;28;20089;-75
2022/07/16 05:41:25;;;;;;;2.75;0.90;;;;;;;25.96;41.46;102377.44;5092196;28;20034;-76
2022/07/16 05:43:51;;;;;;;5.55;1.48;;;;;;;25.74;41.79;102384.72;5078645;28;20112;-76
2022/07/16 05:46:16;;;;;;;2.28;0.98;;;;;;;26.18;40.30;102388.78;5037787;28;20127;-76
2022/07/16 05:48:41;;;;;;;1.77;1.00;;;;;;;26.07;40.47;102386.66;5055381;28;20027;-76
2022/07/16 05:51:07;;;;;;;6.18;1.20;;;;;;;26.32;40.28;102389.91;5054130;28;20032;-76
2022/07/16 05:53:32;;;;;;;4.53;1.10;;;;;;;25.65;41.53;102395.03;5037977;28;20028;-76
2022/07/16 05:55:57;;;;;;;4.80;1.38;;;;;;;25.49;41.59;102394.94;5035339;28;20090;-76
2022/07/16 05:58:23;;;;;;;6.57;1.35;;;;;;;25.51;41.53;102398.38;5039464;28;20397;-76
2022/07/16 06:00:48;;;;;;;4.78;1.42;;;;;;;27.54;37.63;102392.19;5054788;28;20036;-76
2022/07/16 06:03:14;;;;;;;3.45;1.10;;;;;;;27.22;37.90;102399.38;5071706;28;20086;-76
2022/07/16 06:05:39;;;;;;;2.20;1.00;;;;;;;26.81;37.94;102398.03;5034502;28;20120;-76
2022/07/16 06:08:05;;;;;;;3.88;1.38;;;;;;;26.62;38.45;102402.63;5049701;28;20431;-76
2022/07/16 06:10:30;;;;;;;3.78;1.02;;;;;;;26.43;38.49;102408.94;5053030;28;20039;-76
2022/07/16 06:12:57;;;;;;;3.13;1.00;;;;;;;27.85;36.15;102406.53;5072088;28;20098;-75
2022/07/16 06:15:22;;;;;;;6.85;1.45;;;;;;;25.62;38.87;102414.78;5042811;28;20117;-76
2022/07/16 06:17:47;;;;;;;4.05;1.10;;;;;;;26.10;38.54;102412.44;5035594;28;20468;-76
2022/07/16 06:20:13;;;;;;;8.35;1.30;;;;;;;26.91;36.88;102415.38;5067002;28;20086;-76
2022/07/16 06:22:38;;;;;;;3.38;1.23;;;;;;;26.90;37.58;102418.09;5045786;28;20069;-76
2022/07/16 06:25:04;;;;;;;4.97;1.30;;;;;;;27.76;36.22;102415.97;5052756;28;20021;-76
2022/07/16 06:27:30;;;;;;;5.90;1.70;;;;;;;26.31;38.03;102421.19;5053634;28;20395;-76
2022/07/16 06:29:56;;;;;;;6.25;1.23;;;;;;;26.79;37.38;102420.50;5070442;28;20032;-76
2022/07/16 06:32:21;;;;;;;6.80;0.80;;;;;;;27.09;37.13;102424.22;5052772;28;20020;-75
2022/07/16 06:34:47;;;;;;;1.90;0.93;;;;;;;30.06;32.53;102426.84;5051617;28;20028;-76
2022/07/16 06:37:12;;;;;;;7.72;1.90;;;;;;;28.76;33.12;102437.88;5053727;28;20024;-74
2022/07/16 06:39:39;;;;;;;7.97;1.63;;;;;;;29.86;31.43;102429.06;5053231;28;20024;-76
2022/07/16 06:42:04;;;;;;;1.23;1.10;;;;;;;28.80;31.75;102433.16;5053483;28;20024;-75
2022/07/16 06:44:30;;;;;;;4.40;1.30;;;;;;;29.86;30.47;102441.69;5068358;28;20041;-75
2022/07/16 06:46:55;;;;;;;2.72;0.70;;;;;;;29.10;31.74;102443.84;5072238;28;20067;-74
2022/07/16 06:49:21;;;;;;;3.17;0.88;;;;;;;29.36;31.63;102442.19;5072673;28;20074;-74
2022/07/16 06:51:46;;;;;;;5.35;1.23;;;;;;;31.12;29.04;102450.97;5045746;28;20017;-75
2022/07/16 06:54:11;;;;;;;2.80;0.85;;;;;;;31.04;29.10;102451.53;5053261;28;20207;-75
2022/07/16 06:56:37;;;;;;;4.75;0.88;;;;;;;30.98;30.51;102454.63;5042003;28;20112;-75
2022/07/16 06:59:03;;;;;;;5.00;0.98;;;;;;;29.64;31.09;102459.22;5041215;28;20120;-76
2022/07/16 07:01:28;;;;;;;6.55;1.25;;;;;;;30.45;29.91;102455.63;5033863;28;20030;-76
2022/07/16 07:03:54;;;;;;;3.90;1.23;;;;;;;29.73;30.96;102463.13;5067081;28;20484;-75
2022/07/16 07:06:19;;;;;;;5.13;0.80;;;;;;;30.50;29.33;102466.09;5049627;28;20072;-75
2022/07/16 07:08:44;;;;;;;2.17;0.77;;;;;;;30.69;29.14;102473.75;5059654;28;20024;-76
2022/07/16 07:11:10;;;;;;;3.75;0.90;;;;;;;31.50;28.27;102460.78;5043037;28;20064;-75
2022/07/16 07:13:37;;;;;;;6.90;0.95;;;;;;;31.07;28.36;102463.94;5032723;28;20115;-75
2022/07/16 07:16:03;;;;;;;5.05;1.08;;;;;;;33.23;26.44;102460.16;5033660;28;20029;-75
2022/07/16 07:18:28;;;;;;;3.83;1.08;;;;;;;32.21;27.28;102465.47;5034120;28;20625;-75
2022/07/16 07:20:54;;;;;;;2.60;0.90;;;;;;;32.62;26.83;102477.63;5054148;28;20037;-76
2022/07/16 07:23:19;;;;;;;2.60;1.02;;;;;;;31.91;26.97;102470.34;5043829;28;20028;-75
2022/07/16 07:25:44;;;;;;;3.42;0.77;;;;;;;29.91;29.18;102480.81;5030889;28;20032;-74
2022/07/16 07:28:10;;;;;;;3.50;1.00;;;;;;;29.42;31.00;102481.31;5044657;28;20103;-74
2022/07/16 07:30:35;;;;;;;4.45;1.02;;;;;;;30.26;29.20;102482.09;5033444;28;20033;-75
2022/07/16 07:33:01;;;;;;;4.65;0.80;;;;;;;30.25;29.34;102483.94;5056875;28;20056;-74
2022/07/16 07:35:26;;;;;;;7.20;1.27;;;;;;;30.87;29.39;102487.78;5033882;28;20048;-75
2022/07/16 07:37:52;;;;;;;3.72;0.90;;;;;;;33.34;25.19;102481.00;5058056;28;20476;-75
2022/07/16 07:40:18;;;;;;;6.57;1.55;;;;;;;32.81;25.83;102487.88;5046409;28;20102;-76
2022/07/16 07:42:44;;;;;;;3.25;0.70;;;;;;;30.88;26.89;102486.81;5062906;28;20032;-75
2022/07/16 07:45:10;;;;;;;2.97;0.57;;;;;;;34.35;23.63;102484.34;5059048;28;20516;-75
2022/07/16 07:47:37;;;;;;;5.78;0.93;;;;;;;34.49;23.46;102489.44;5072480;28;20107;-75
2022/07/16 07:50:04;;;;;;;5.30;0.95;;;;;;;32.58;24.69;102486.97;5077931;28;20028;-76
2022/07/16 07:52:29;;;;;;;4.60;0.73;;;;;;;32.43;25.07;102489.00;5075031;28;20070;-74
2022/07/16 07:54:54;;;;;;;5.30;0.70;;;;;;;33.42;24.34;102492.06;5088113;28;20084;-75
2022/07/16 07:57:20;;;;;;;3.47;1.30;;;;;;;35.06;22.35;102483.59;5088923;28;20040;-76
2022/07/16 07:59:46;;;;;;;1.65;0.77;;;;;;;34.89;21.84;102494.13;5069160;28;20021;-75
2022/07/16 08:02:12;;;;;;;6.32;1.00;;;;;;;34.60;22.47;102500.22;5068795;28;20024;-75
2022/07/16 08:04:37;;;;;;;3.05;0.73;;;;;;;35.42;22.84;102494.88;5069947;28;20031;-75
2022/07/16 08:07:02;;;;;;;4.97;0.82;;;;;;;35.69;21.04;102501.53;5075848;28;20540;-75
2022/07/16 08:09:28;;;;;;;2.00;0.75;;;;;;;37.87;19.22;102506.06;5090684;28;20028;-75
2022/07/16 08:11:54;;;;;;;3.85;0.70;;;;;;;36.41;20.28;102508.44;5069008;28;20029;-75
2022/07/16 08:14:19;;;;;;;4.60;1.08;;;;;;;35.42;20.68;102505.75;5068997;28;20472;-75
2022/07/16 08:16:44;;;;;;;4.63;1.00;;;;;;;33.79;21.51;102513.44;5070496;28;20115;-73
2022/07/16 08:19:10;;;;;;;5.40;1.17;;;;;;;37.96;19.45;102518.78;5075323;28;20400;-76
2022/07/16 08:21:35;;;;;;;1.95;0.70;;;;;;;37.27;19.99;102521.03;5070203;28;20202;-75
2022/07/16 08:26:46;;;;;;;6.07;0.75;;;;;;;36.74;19.32;102527.09;5071768;28;20043;-75
2022/07/16 08:29:11;;;;;;;3.42;0.75;;;;;;;34.79;20.89;102531.22;5071606;28;20013;-75
2022/07/16 08:31:37;;;;;;;1.98;0.65;;;;;;;34.57;21.59;102533.06;5086748;28;20506;-76
2022/07/16 08:34:02;;;;;;;3.92;0.60;;;;;;;32.52;23.41;102547.84;5083608;28;20036;-75
2022/07/16 08:36:28;;;;;;;2.55;0.70;;;;;;;34.71;21.88;102545.44;5078995;28;20032;-76
2022/07/16 08:38:53;;;;;;;4.03;0.98;;;;;;;35.33;22.04;102543.63;5076454;28;20115;-75
2022/07/16 08:41:20;;;;;;;1.77;0.70;;;;;;;34.35;21.84;102544.03;5075796;28;20442;-75
2022/07/16 08:43:47;;;;;;;3.45;0.70;;;;;;;34.23;21.84;102537.78;5079075;28;20487;-76
2022/07/16 08:46:13;;;;;;;2.47;0.80;;;;;;;35.66;20.58;102541.56;5045178;28;20037;-75
2022/07/16 08:48:38;;;;;;;2.67;0.82;;;;;;;33.19;22.32;102546.22;5057078;28;20060;-73
2022/07/16 08:51:10;;;;;;;1.83;0.80;;;;;;;35.41;20.48;102558.41;5042710;28;20499;-75
2022/07/16 08:53:37;;;;;;;4.50;0.60;;;;;;;36.11;19.69;102555.69;5066493;28;20377;-75
2022/07/16 08:56:03;;;;;;;2.47;0.80;;;;;;;36.61;19.31;102558.25;5055975;28;20274;-76
2022/07/16 08:58:31;;;;;;;2.67;0.60;;;;;;;34.78;21.01;102572.94;5037502;28;20400;-76
2022/07/16 09:00:57;;;;;;;8.05;1.02;;;;;;;35.21;20.46;102569.16;5036668;28;20032;-76
2022/07/16 09:03:22;;;;;;;3.13;0.57;;;;;;;33.50;22.30;102570.88;5036263;28;20025;-75
2022/07/16 09:05:51;;;;;;;4.43;0.65;;;;;;;36.03;20.04;102563.72;5036069;28;20473;-76
2022/07/16 09:08:17;;;;;;;3.95;0.82;;;;;;;35.32;19.88;102576.38;5036075;28;20052;-74
2022/07/16 09:10:43;;;;;;;2.50;0.70;;;;;;;35.64;19.96;102570.78;5055839;28;20078;-76
2022/07/16 09:13:12;;;;;;;1.67;0.80;;;;;;;37.07;19.34;102568.47;5053294;28;20021;-76
2022/07/16 09:15:40;;;;;;;1.33;0.80;;;;;;;36.57;18.99;102567.72;5050951;28;20029;-76
2022/07/16 09:18:12;;;;;;;1.67;0.75;;;;;;;37.90;17.83;102571.22;5055576;28;20476;-76
2022/07/16 09:20:39;;;;;;;3.13;1.33;;;;;;;35.22;19.67;102587.19;5045926;28;20029;-76
2022/07/16 09:23:17;;;;;;;3.30;0.88;;;;;;;35.81;20.02;102577.38;5049714;28;20395;-76
2022/07/16 09:25:51;;;;;;;2.58;0.65;;;;;;;37.80;18.42;102565.00;5044217;28;20487;-75
2022/07/16 09:28:18;;;;;;;1.60;0.93;;;;;;;36.21;18.51;102559.25;5064575;28;20029;-75
2022/07/16 09:30:44;;;;;;;3.47;0.82;;;;;;;34.61;19.68;102577.97;5055883;28;20590;-76
2022/07/16 09:33:23;;;;;;;0.93;0.43;;;;;;;35.31;20.45;102589.13;5051650;28;20056;-76
2022/07/16 09:36:04;;;;;;;3.67;1.00;;;;;;;35.20;20.65;102583.75;5065938;28;20039;-76
2022/07/16 09:38:29;;;;;;;1.42;0.70;;;;;;;35.89;19.31;102589.44;5033440;28;20498;-78
2022/07/16 09:40:54;;;;;;;2.47;0.70;;;;;;;35.53;18.61;102589.06;5044579;28;20059;-75
2022/07/16 09:43:22;;;;;;;0.65;0.50;;;;;;;35.28;19.52;102597.53;5073782;28;20028;-76
2022/07/16 09:45:57;;;;;;;4.07;0.70;;;;;;;35.94;18.68;102596.22;5071383;28;20055;-76
2022/07/16 09:48:27;;;;;;;1.52;0.88;;;;;;;36.76;18.20;102593.19;5061554;28;20040;-75
2022/07/16 09:50:55;;;;;;;1.58;0.50;;;;;;;35.88;19.12;102591.31;5053768;28;20032;-75
2022/07/16 09:53:26;;;;;;;3.15;0.68;;;;;;;36.58;18.74;102588.50;5052738;28;20087;-76
2022/07/16 09:55:57;;;;;;;4.20;0.55;;;;;;;33.18;22.24;102601.41;5035058;28;20025;-75
2022/07/16 09:58:23;;;;;;;4.47;0.73;;;;;;;34.49;21.33;102600.72;5038614;28;20029;-76
2022/07/16 10:00:49;;;;;;;1.85;0.63;;;;;;;35.75;20.00;102609.72;5052293;28;20095;-75
2022/07/16 10:03:14;;;;;;;2.45;1.10;;;;;;;36.96;18.63;102605.78;5053435;28;20029;-76
2022/07/16 10:05:40;;;;;;;2.08;0.70;;;;;;;34.23;21.06;102601.03;5053979;28;20358;-76
2022/07/16 10:08:06;;;;;;;3.92;0.80;;;;;;;34.52;20.60;102615.91;5034446;28;20036;-76
2022/07/16 10:10:31;;;;;;;0.90;0.40;;;;;;;33.15;22.27;102616.03;5035323;28;20028;-75
2022/07/16 10:12:57;;;;;;;3.30;0.60;;;;;;;32.49;22.57;102613.00;5052340;28;20043;-76
2022/07/16 10:15:23;;;;;;;1.80;0.68;;;;;;;33.53;22.51;102616.69;5057804;28;20475;-76
2022/07/16 10:17:48;;;;;;;1.52;0.68;;;;;;;34.47;20.59;102616.25;5054157;28;20450;-76
2022/07/16 10:20:18;;;;;;;1.45;0.60;;;;;;;34.09;20.71;102612.22;5039654;28;20052;-75
2022/07/16 10:22:46;;;;;;;1.83;0.70;;;;;;;33.16;22.22;102616.88;5054759;28;20047;-75
2022/07/16 10:25:19;;;;;;;1.83;0.75;;;;;;;33.40;22.27;102621.38;5044989;28;20020;-74
2022/07/16 10:27:45;;;;;;;2.63;0.50;;;;;;;34.03;20.72;102620.84;5051732;28;20416;-75
2022/07/16 10:30:30;;;;;;;2.08;0.50;;;;;;;33.81;20.50;102626.19;5035332;28;20043;-75
2022/07/16 10:32:59;;;;;;;0.85;0.68;;;;;;;34.59;20.23;102617.09;5059040;28;20056;-76
2022/07/16 10:35:38;;;;;;;1.83;0.70;;;;;;;35.32;19.62;102631.63;5044442;28;20021;-76
2022/07/16 10:38:27;;;;;;;4.68;0.65;;;;;;;33.04;21.67;102625.97;5069614;28;20388;-76
2022/07/16 10:41:09;;;;;;;1.48;0.60;;;;;;;31.85;23.25;102635.72;5047543;28;20036;-76
2022/07/16 10:43:35;;;;;;;6.07;1.25;;;;;;;34.18;22.18;102633.13;5053847;28;20028;-76
2022/07/16 10:46:06;;;;;;;1.35;0.52;;;;;;;33.76;21.79;102632.94;5051513;28;20055;-76
2022/07/16 10:48:38;;;;;;;1.35;0.50;;;;;;;32.30;22.88;102646.84;5046469;28;20501;-76
2022/07/16 10:51:16;;;;;;;1.87;0.60;;;;;;;33.28;21.77;102648.47;5050791;28;20025;-76
2022/07/16 10:53:57;;;;;;;3.35;0.50;;;;;;;32.18;23.37;102645.06;5047000;28;20093;-75
2022/07/16 10:56:45;;;;;;;6.25;0.60;;;;;;;34.18;21.40;102652.09;5040723;28;20036;-76
2022/07/16 10:59:13;;;;;;;3.90;0.68;;;;;;;35.14;20.74;102644.06;5038502;28;20439;-76
2022/07/16 11:01:41;;;;;;;0.82;0.47;;;;;;;33.11;21.74;102646.19;5033891;28;20082;-76
2022/07/16 11:04:08;;;;;;;7.18;0.90;;;;;;;33.67;21.31;102639.97;5051331;28;20078;-76
2022/07/16 11:06:33;;;;;;;1.55;0.90;;;;;;;33.72;21.68;102656.72;5053724;28;20507;-76
2022/07/16 11:09:00;;;;;;;1.73;0.60;;;;;;;34.64;20.42;102642.84;5058727;28;20053;-76
2022/07/16 11:11:33;;;;;;;3.47;0.60;;;;;;;33.79;21.62;102647.13;5061595;28;20033;-75
2022/07/16 11:13:59;;;;;;;1.48;0.65;;;;;;;33.15;22.08;102653.97;5055259;28;20025;-76
2022/07/16 11:16:25;;;;;;;3.72;0.65;;;;;;;32.20;23.57;102650.34;5056172;28;20043;-76
2022/07/16 11:18:50;;;;;;;2.38;0.50;;;;;;;33.12;22.69;102648.75;5071423;28;20024;-75
2022/07/16 11:21:16;;;;;;;1.65;0.70;;;;;;;34.70;21.43;102656.91;5052271;28;20104;-76
2022/07/16 11:23:53;;;;;;;2.22;0.93;;;;;;;32.74;22.90;102654.44;5053823;28;20491;-76
2022/07/16 11:26:21;;;;;;;2.30;0.60;;;;;;;34.77;21.03;102653.50;5069873;28;20519;-76
2022/07/16 11:28:52;;;;;;;2.40;0.80;;;;;;;34.70;20.35;102670.47;5052082;28;20029;-77